الصفحة الرئيسية
METAR-TAF:

METAR-TAF

مطار :

مطار أكادير المسيرة الدولي

أغادير, المغرب

دائرة عرض: 30-20N, خط طول: 009-24W, ارتفاع: 74 متر

مراقبة الطقس الحالي

تاريخ ووقت الإصدار 33 دقيقة قبل الساعة 12:30UTC
ريح 3 عقدة من الغرب
درجة الحرارة 19°درجة مئوية
الرطوبة 56%
ضغط 1023 hPa
الرؤية 10 كم أو أكثر
الغيوم لا تقل 1500 م ولا وجود لمزنة ركامية السحاب الأسود

METAR: GMAD 081230Z 27003KT CAVOK 19/10 Q1023 NOSIG

زمن: 14:03 (13:03 UTC)

توقعات

تاريخ ووقت الإصدار 2ساعات و 3 دقيقة قبل الساعة 11:00UTC
التوقعات صالحة من08 الساعة 12 UTC إلى 09 الساعة 18 UTC
ريح 12 عقدة من الغرب
الرؤية: 8000 متر
غيوم قليلة على ارتفاع 2000 قدم
أصبح
من 08 الساعة 19 UTC إلى 08 الساعة 21 UTC
ريح 6 عقدة من الشرق/الجنوب الشرقي
أصبح
من 09 الساعة 12 UTC إلى 09 الساعة 14 UTC
ريح 12 عقدة من الغرب

TAF: GMAD 081100Z 0812/0918 28012KT 8000 FEW020 BECMG 0819/0821 12006KT BECMG 0912/0914 28012KT

أرصاد الطقس والتوقعات من أكثر من 4000 مطار (تقارير الطقس للمطار METAR والتنبؤ بالطقس بالمطارTAF).

المحطات المتاحة هي النقط الصفراء والحمراء على الخريطة.

حرك المؤشر فوق النقطة لمعرفة اسم المحطة.

ثم انقر لمعرفة أرصاد وتوقعات الطقس.

لتغيير الخارطة: اضغط على الأزرار الخضراء مع رمز الصليب الأسود للتكبير. على الزر الأخضر مع شرطة للتصغير، أو على الأسهم الخضراء للخرائط المجاورة.


METAR-TAF: